createdAt,value
2019-04-04T00:00:31.182Z,0.00
2019-04-04T00:01:31.262Z,0.00
2019-04-04T00:02:31.159Z,0.00
2019-04-04T00:03:31.148Z,0.00
2019-04-04T00:04:31.134Z,0.00
2019-04-04T00:05:31.117Z,0.00
2019-04-04T00:06:31.225Z,0.00
2019-04-04T00:07:31.105Z,0.00
2019-04-04T00:08:31.794Z,0.00
2019-04-04T00:09:33.222Z,0.00
2019-04-04T00:10:31.069Z,0.00
2019-04-04T00:11:31.081Z,0.00
2019-04-04T00:12:31.598Z,0.00
2019-04-04T00:13:31.053Z,0.00
2019-04-04T00:14:31.113Z,0.00
2019-04-04T00:15:31.016Z,0.00
2019-04-04T00:16:31.133Z,0.00
2019-04-04T00:17:30.994Z,0.00
2019-04-04T00:18:30.975Z,0.00
2019-04-04T00:19:30.961Z,0.00
2019-04-04T00:20:31.843Z,0.00
2019-04-04T00:21:31.985Z,0.00
2019-04-04T00:22:31.031Z,0.00
2019-04-04T00:23:30.932Z,0.00
2019-04-04T00:24:30.936Z,0.00
2019-04-04T00:25:30.933Z,0.00
2019-04-04T00:26:30.972Z,0.00
2019-04-04T00:27:30.973Z,0.00
2019-04-04T00:28:30.864Z,0.00
2019-04-04T00:29:30.854Z,0.00
2019-04-04T00:30:30.831Z,0.00
2019-04-04T00:31:30.831Z,0.00
2019-04-04T00:32:31.008Z,0.00
2019-04-04T00:33:30.808Z,0.00
2019-04-04T00:34:30.800Z,0.00
2019-04-04T00:35:31.000Z,0.00
2019-04-04T00:36:33.750Z,0.00
2019-04-04T00:37:30.771Z,0.00
2019-04-04T00:38:30.906Z,0.00
2019-04-04T00:39:30.755Z,0.00
2019-04-04T00:40:30.721Z,0.00
2019-04-04T00:41:30.745Z,0.00
2019-04-04T00:42:30.710Z,0.00
2019-04-04T00:43:30.698Z,0.00
2019-04-04T00:44:30.746Z,0.00
2019-04-04T00:45:30.672Z,0.00
2019-04-04T00:46:30.997Z,0.00
2019-04-04T00:47:32.410Z,0.00
2019-04-04T00:48:32.249Z,0.00
2019-04-04T00:49:30.737Z,0.00
2019-04-04T00:50:30.615Z,0.00
2019-04-04T00:51:30.598Z,0.00
2019-04-04T00:52:30.604Z,0.00
2019-04-04T00:53:30.580Z,0.00
2019-04-04T00:54:30.671Z,0.00
2019-04-04T00:55:30.563Z,0.00
2019-04-04T00:56:30.567Z,0.00
2019-04-04T00:57:30.540Z,0.00
2019-04-04T00:58:30.565Z,0.00
2019-04-04T00:59:30.518Z,0.00
2019-04-04T01:00:30.912Z,0.00
2019-04-04T01:01:30.497Z,0.00
2019-04-04T01:02:30.490Z,0.00
2019-04-04T01:03:30.736Z,0.00
2019-04-04T01:04:31.211Z,0.00
2019-04-04T01:05:32.024Z,0.00
2019-04-04T01:06:33.477Z,0.00
2019-04-04T01:07:30.424Z,0.00
2019-04-04T01:08:30.419Z,0.00
2019-04-04T01:09:30.398Z,0.00
2019-04-04T01:10:30.392Z,0.00
2019-04-04T01:11:30.481Z,0.00
2019-04-04T01:12:30.373Z,0.00
2019-04-04T01:13:30.366Z,0.00
2019-04-04T01:14:30.345Z,0.00
2019-04-04T01:15:31.292Z,0.00
2019-04-04T01:16:33.345Z,0.00
2019-04-04T01:17:30.545Z,0.00
2019-04-04T01:18:30.297Z,0.00
2019-04-04T01:19:30.310Z,0.00
2019-04-04T01:20:30.274Z,0.00
2019-04-04T01:21:30.268Z,0.00
2019-04-04T01:22:30.255Z,0.00
2019-04-04T01:23:30.428Z,0.00
2019-04-04T01:24:30.239Z,0.00
2019-04-04T01:25:32.662Z,0.00
2019-04-04T01:26:30.222Z,0.00
2019-04-04T01:27:30.201Z,0.00
2019-04-04T01:28:30.211Z,0.00
2019-04-04T01:29:30.252Z,0.00
2019-04-04T01:30:30.462Z,0.00
2019-04-04T01:31:30.164Z,0.00
2019-04-04T01:32:30.180Z,0.00
2019-04-04T01:33:30.132Z,0.00
2019-04-04T01:34:30.252Z,0.00
2019-04-04T01:35:30.220Z,0.00
2019-04-04T01:36:30.110Z,0.00
2019-04-04T01:37:30.114Z,0.00
2019-04-04T01:38:30.088Z,0.00
2019-04-04T01:39:31.331Z,0.00
2019-04-04T01:40:32.954Z,0.00
2019-04-04T01:41:30.062Z,0.00
2019-04-04T01:42:30.043Z,0.00
2019-04-04T01:43:30.034Z,0.00
2019-04-04T01:44:30.020Z,0.00
2019-04-04T01:45:30.007Z,0.00
2019-04-04T01:46:30.054Z,0.00
2019-04-04T01:47:30.013Z,0.00
2019-04-04T01:48:29.970Z,0.00
2019-04-04T01:49:29.960Z,0.00
2019-04-04T01:50:30.049Z,0.00
2019-04-04T01:51:29.966Z,0.00
2019-04-04T01:52:50.975Z,0.00
2019-04-04T01:53:30.211Z,0.00
2019-04-04T01:54:32.003Z,0.00
2019-04-04T01:55:29.897Z,0.00
2019-04-04T01:56:29.978Z,0.00
2019-04-04T01:57:29.880Z,0.00
2019-04-04T01:58:30.055Z,0.00
2019-04-04T01:59:29.857Z,0.00
2019-04-04T02:00:29.835Z,0.00
2019-04-04T02:01:30.287Z,0.00
2019-04-04T02:02:29.824Z,0.00
2019-04-04T02:03:29.811Z,0.00
2019-04-04T02:04:30.088Z,0.00
2019-04-04T02:05:29.795Z,0.00
2019-04-04T02:06:29.785Z,0.00
2019-04-04T02:07:30.427Z,0.00
2019-04-04T02:08:31.408Z,0.00
2019-04-04T02:09:29.823Z,0.00
2019-04-04T02:10:29.733Z,0.00
2019-04-04T02:11:29.733Z,0.00
2019-04-04T02:12:29.703Z,0.00
2019-04-04T02:13:29.691Z,0.00
2019-04-04T02:14:29.769Z,0.00
2019-04-04T02:15:29.671Z,0.00
2019-04-04T02:16:29.704Z,0.00
2019-04-04T02:17:29.677Z,0.00
2019-04-04T02:18:29.638Z,0.00
2019-04-04T02:19:29.718Z,0.00
2019-04-04T02:20:29.715Z,0.00
2019-04-04T02:21:29.690Z,0.00
2019-04-04T02:22:30.934Z,0.00
2019-04-04T02:23:31.480Z,0.00
2019-04-04T02:24:29.846Z,0.00
2019-04-04T02:25:29.562Z,0.00
2019-04-04T02:26:29.636Z,0.00
2019-04-04T02:27:29.559Z,0.00
2019-04-04T02:28:29.544Z,0.00
2019-04-04T02:29:29.529Z,0.00
2019-04-04T02:30:29.506Z,0.00
2019-04-04T02:31:29.494Z,0.00
2019-04-04T02:32:29.587Z,0.00
2019-04-04T02:33:32.200Z,0.00
2019-04-04T02:34:29.472Z,0.00
2019-04-04T02:35:29.455Z,0.00
2019-04-04T02:36:29.490Z,0.00
2019-04-04T02:37:29.538Z,0.00
2019-04-04T02:38:29.437Z,0.00
2019-04-04T02:39:29.413Z,0.00
2019-04-04T02:40:29.441Z,0.00
2019-04-04T02:41:29.380Z,0.00
2019-04-04T02:42:29.376Z,0.00
2019-04-04T02:43:29.452Z,0.00
2019-04-04T02:44:31.705Z,0.00
2019-04-04T02:45:29.357Z,0.00
2019-04-04T02:46:29.327Z,0.00
2019-04-04T02:47:29.321Z,0.00
2019-04-04T02:48:29.399Z,0.00
2019-04-04T02:49:29.628Z,0.00
2019-04-04T02:50:34.340Z,0.00
2019-04-04T02:51:30.367Z,0.00
2019-04-04T02:52:29.261Z,0.00
2019-04-04T02:53:29.282Z,0.00
2019-04-04T02:54:29.350Z,0.00
2019-04-04T02:55:31.039Z,0.00
2019-04-04T02:56:29.226Z,0.00
2019-04-04T02:57:29.235Z,0.00
2019-04-04T02:58:29.193Z,0.00
2019-04-04T02:59:29.197Z,0.00
2019-04-04T03:00:29.295Z,0.00
2019-04-04T03:01:31.794Z,0.00
2019-04-04T03:02:29.161Z,0.00
2019-04-04T03:03:29.144Z,0.00
2019-04-04T03:04:29.126Z,0.00
2019-04-04T03:05:29.244Z,0.00
2019-04-04T03:06:29.130Z,0.00
2019-04-04T03:07:30.944Z,0.00
2019-04-04T03:08:29.842Z,0.00
2019-04-04T03:09:29.072Z,0.00
2019-04-04T03:10:29.125Z,0.00
2019-04-04T03:11:29.143Z,0.00
2019-04-04T03:12:29.262Z,0.00
2019-04-04T03:13:32.169Z,0.00
2019-04-04T03:14:29.049Z,0.00
2019-04-04T03:15:29.006Z,0.00
2019-04-04T03:16:29.003Z,0.00
2019-04-04T03:17:31.944Z,0.00
2019-04-04T03:18:29.082Z,0.00
2019-04-04T03:19:28.967Z,0.00
2019-04-04T03:20:28.974Z,0.00
2019-04-04T03:21:28.974Z,0.00
2019-04-04T03:22:29.058Z,0.00
2019-04-04T03:23:32.942Z,0.00
2019-04-04T03:24:28.938Z,0.00
2019-04-04T03:25:28.927Z,0.00
2019-04-04T03:26:29.049Z,0.00
2019-04-04T03:27:28.913Z,0.00
2019-04-04T03:28:31.455Z,0.00
2019-04-04T03:29:29.552Z,0.00
2019-04-04T03:30:28.841Z,0.00
2019-04-04T03:31:36.121Z,0.00
2019-04-04T03:32:29.822Z,0.00
2019-04-04T03:33:31.964Z,0.00
2019-04-04T03:34:29.010Z,0.00
2019-04-04T03:35:29.535Z,0.00
2019-04-04T03:36:30.761Z,0.00
2019-04-04T03:37:28.771Z,0.00
2019-04-04T03:38:28.751Z,0.00
2019-04-04T03:39:28.839Z,0.00
2019-04-04T03:40:28.737Z,0.00
2019-04-04T03:41:30.644Z,0.00
2019-04-04T03:42:28.728Z,0.00
2019-04-04T03:43:28.712Z,0.00
2019-04-04T03:44:28.941Z,0.00
2019-04-04T03:45:28.677Z,0.00
2019-04-04T03:46:33.530Z,0.00
2019-04-04T03:47:29.722Z,0.00
2019-04-04T03:48:28.666Z,0.00
2019-04-04T03:49:28.703Z,0.00
2019-04-04T03:50:30.258Z,0.00
2019-04-04T03:51:28.633Z,0.00
2019-04-04T03:52:28.617Z,0.00
2019-04-04T03:53:28.585Z,0.00
2019-04-04T03:54:28.675Z,0.00
2019-04-04T03:55:28.800Z,0.00
2019-04-04T03:56:33.271Z,0.00
2019-04-04T03:57:29.542Z,0.00
2019-04-04T03:58:28.530Z,0.00
2019-04-04T03:59:29.520Z,0.00
2019-04-04T04:00:28.678Z,0.00
2019-04-04T04:01:28.532Z,0.00
2019-04-04T04:02:28.493Z,0.00
2019-04-04T04:03:28.488Z,0.00
2019-04-04T04:04:28.538Z,0.00
2019-04-04T04:05:33.939Z,0.00
2019-04-04T04:06:29.463Z,0.00
2019-04-04T04:07:28.430Z,0.00
2019-04-04T04:08:28.426Z,0.00
2019-04-04T04:09:28.517Z,0.00
2019-04-04T04:10:32.199Z,0.00
2019-04-04T04:11:28.388Z,0.00
2019-04-04T04:12:28.383Z,0.00
2019-04-04T04:13:28.562Z,0.00
2019-04-04T04:14:28.358Z,0.00
2019-04-04T04:15:30.303Z,0.00
2019-04-04T04:16:28.588Z,0.00
2019-04-04T04:17:28.329Z,0.00
2019-04-04T04:18:28.440Z,0.00
2019-04-04T04:19:30.911Z,0.00
2019-04-04T04:20:28.300Z,0.00
2019-04-04T04:21:28.279Z,0.00
2019-04-04T04:22:28.373Z,0.00
2019-04-04T04:23:28.313Z,0.00
2019-04-04T04:24:29.631Z,0.00
2019-04-04T04:25:28.266Z,0.00
2019-04-04T04:26:28.247Z,0.00
2019-04-04T04:27:28.299Z,5.62
2019-04-04T04:28:28.208Z,5.62
2019-04-04T04:29:29.889Z,5.62
2019-04-04T04:30:28.186Z,5.62
2019-04-04T04:31:28.191Z,5.62
2019-04-04T04:32:28.651Z,5.62
2019-04-04T04:33:29.293Z,5.62
2019-04-04T04:34:32.918Z,11.25
2019-04-04T04:35:29.139Z,11.25
2019-04-04T04:36:28.205Z,11.25
2019-04-04T04:37:28.106Z,11.25
2019-04-04T04:38:28.174Z,11.25
2019-04-04T04:39:28.080Z,16.88
2019-04-04T04:40:28.072Z,16.88
2019-04-04T04:41:30.190Z,16.88
2019-04-04T04:42:28.130Z,22.50
2019-04-04T04:43:32.155Z,22.50
2019-04-04T04:44:30.777Z,22.50
2019-04-04T04:45:28.013Z,22.50
2019-04-04T04:46:28.070Z,28.12
2019-04-04T04:47:27.992Z,28.12
2019-04-04T04:48:30.857Z,28.12
2019-04-04T04:49:27.972Z,33.75
2019-04-04T04:50:27.953Z,33.75
2019-04-04T04:51:27.948Z,33.75
2019-04-04T04:52:28.107Z,39.38
2019-04-04T04:53:27.920Z,39.38
2019-04-04T04:54:27.912Z,39.38
2019-04-04T04:55:28.213Z,45.00
2019-04-04T04:56:30.929Z,45.00
2019-04-04T04:57:30.065Z,50.62
2019-04-04T04:58:27.872Z,50.62
2019-04-04T04:59:27.870Z,50.62
2019-04-04T05:00:28.236Z,56.25
2019-04-04T05:01:27.871Z,56.25
2019-04-04T05:02:28.587Z,61.88
2019-04-04T05:03:27.850Z,61.88
2019-04-04T05:04:28.314Z,61.88
2019-04-04T05:05:31.104Z,67.50
2019-04-04T05:06:27.849Z,67.50
2019-04-04T05:07:27.790Z,73.12
2019-04-04T05:08:27.764Z,73.12
2019-04-04T05:09:27.748Z,78.75
2019-04-04T05:10:27.747Z,78.75
2019-04-04T05:11:27.734Z,84.38
2019-04-04T05:12:27.868Z,84.38
2019-04-04T05:13:28.878Z,84.38
2019-04-04T05:14:27.832Z,90.00
2019-04-04T05:15:27.671Z,95.62
2019-04-04T05:16:27.670Z,95.62
2019-04-04T05:17:27.767Z,101.25
2019-04-04T05:18:27.751Z,101.25
2019-04-04T05:19:27.653Z,106.88
2019-04-04T05:20:29.820Z,112.50
2019-04-04T05:21:28.934Z,112.50
2019-04-04T05:22:27.662Z,118.12
2019-04-04T05:23:27.698Z,118.12
2019-04-04T05:24:27.607Z,123.75
2019-04-04T05:25:30.872Z,123.75
2019-04-04T05:26:28.051Z,123.75
2019-04-04T05:27:27.569Z,129.38
2019-04-04T05:28:27.534Z,135.00
2019-04-04T05:29:27.660Z,140.62
2019-04-04T05:30:27.545Z,140.62
2019-04-04T05:31:27.555Z,146.25
2019-04-04T05:32:27.489Z,151.88
2019-04-04T05:33:28.469Z,151.88
2019-04-04T05:34:28.293Z,157.50
2019-04-04T05:35:27.590Z,163.12
2019-04-04T05:36:27.481Z,168.75
2019-04-04T05:37:27.729Z,168.75
2019-04-04T05:38:27.479Z,174.38
2019-04-04T05:39:27.571Z,180.00
2019-04-04T05:40:30.516Z,185.62
2019-04-04T05:41:28.045Z,191.25
2019-04-04T05:42:27.500Z,191.25
2019-04-04T05:43:27.556Z,196.88
2019-04-04T05:44:27.545Z,202.50
2019-04-04T05:45:27.732Z,202.50
2019-04-04T05:46:27.516Z,208.12
2019-04-04T05:47:27.483Z,213.75
2019-04-04T05:48:29.089Z,219.38
2019-04-04T05:49:27.866Z,225.00
2019-04-04T05:50:27.683Z,230.62
2019-04-04T05:51:27.616Z,236.25
2019-04-04T05:52:27.708Z,241.88
2019-04-04T05:53:29.873Z,247.50
2019-04-04T05:54:27.582Z,253.12
2019-04-04T05:55:27.476Z,253.12
2019-04-04T05:56:27.558Z,258.75
2019-04-04T05:57:27.706Z,258.75
2019-04-04T05:58:27.536Z,264.38
2019-04-04T05:59:27.460Z,270.00
2019-04-04T06:00:28.214Z,275.62
2019-04-04T06:01:27.436Z,281.25
2019-04-04T06:02:27.505Z,286.88
2019-04-04T06:03:27.618Z,292.50
2019-04-04T06:04:27.510Z,298.12
2019-04-04T06:05:27.909Z,303.75
2019-04-04T06:06:27.474Z,315.00
2019-04-04T06:07:27.390Z,320.62
2019-04-04T06:08:27.457Z,326.25
2019-04-04T06:09:27.779Z,331.88
2019-04-04T06:10:27.438Z,331.88
2019-04-04T06:11:27.472Z,337.50
2019-04-04T06:12:27.456Z,337.50
2019-04-04T06:13:27.594Z,343.12
2019-04-04T06:14:29.690Z,348.75
2019-04-04T06:15:28.009Z,354.38
2019-04-04T06:16:27.454Z,360.00
2019-04-04T06:17:27.836Z,365.62
2019-04-04T06:18:27.184Z,371.25
2019-04-04T06:19:27.413Z,376.88
2019-04-04T06:20:27.421Z,382.50
2019-04-04T06:21:27.414Z,388.12
2019-04-04T06:22:27.398Z,393.75
2019-04-04T06:23:27.711Z,399.38
2019-04-04T06:24:27.246Z,399.38
2019-04-04T06:25:28.288Z,410.62
2019-04-04T06:26:27.712Z,416.25
2019-04-04T06:27:26.888Z,416.25
2019-04-04T06:28:26.985Z,421.88
2019-04-04T06:29:27.662Z,427.50
2019-04-04T06:30:26.861Z,438.75
2019-04-04T06:31:30.664Z,444.38
2019-04-04T06:32:26.835Z,455.62
2019-04-04T06:33:27.218Z,466.88
2019-04-04T06:34:26.814Z,540.00
2019-04-04T06:35:26.790Z,753.75
2019-04-04T06:36:26.804Z,950.62
2019-04-04T06:37:26.775Z,1108.12
2019-04-04T06:38:26.812Z,1147.50
2019-04-04T06:39:27.181Z,1170.00
2019-04-04T06:40:28.103Z,1203.75
2019-04-04T06:41:28.145Z,1226.25
2019-04-04T06:42:26.723Z,1237.50
2019-04-04T06:43:26.835Z,1260.00
2019-04-04T06:44:26.780Z,1293.75
2019-04-04T06:45:29.599Z,1333.12
2019-04-04T06:46:28.219Z,1383.75
2019-04-04T06:47:26.679Z,1383.75
2019-04-04T06:48:27.178Z,1333.12
2019-04-04T06:49:28.832Z,1428.75
2019-04-04T06:50:26.762Z,1530.00
2019-04-04T06:51:26.665Z,1586.25
2019-04-04T06:52:26.606Z,1676.25
2019-04-04T06:53:26.624Z,1687.50
2019-04-04T06:54:26.628Z,1575.00
2019-04-04T06:55:28.743Z,1485.00
2019-04-04T06:56:26.560Z,1456.88
2019-04-04T06:57:26.556Z,1445.62
2019-04-04T06:58:26.531Z,1445.62
2019-04-04T06:59:26.543Z,1462.50
2019-04-04T07:00:26.548Z,1451.25
2019-04-04T07:01:26.663Z,1524.38
2019-04-04T07:02:26.711Z,1541.25
2019-04-04T07:03:27.939Z,1524.38
2019-04-04T07:04:26.468Z,1530.00
2019-04-04T07:05:26.460Z,1563.75
2019-04-04T07:06:26.455Z,1563.75
2019-04-04T07:07:26.699Z,1563.75
2019-04-04T07:08:26.542Z,1625.62
2019-04-04T07:09:26.404Z,1676.25
2019-04-04T07:10:26.409Z,1681.88
2019-04-04T07:11:26.389Z,1721.25
2019-04-04T07:12:28.397Z,1653.75
2019-04-04T07:13:27.976Z,1608.75
2019-04-04T07:14:30.033Z,1721.25
2019-04-04T07:15:27.463Z,1771.88
2019-04-04T07:16:26.330Z,1800.00
2019-04-04T07:17:26.600Z,1811.25
2019-04-04T07:18:26.322Z,1856.25
2019-04-04T07:19:26.348Z,1845.00
2019-04-04T07:20:28.390Z,1861.88
2019-04-04T07:21:26.277Z,1856.25
2019-04-04T07:22:26.413Z,1856.25
2019-04-04T07:23:28.341Z,1873.12
2019-04-04T07:24:26.247Z,1878.75
2019-04-04T07:25:26.230Z,1912.50
2019-04-04T07:26:26.326Z,2019.38
2019-04-04T07:27:26.330Z,1957.50
2019-04-04T07:28:26.383Z,1946.25
2019-04-04T07:29:26.195Z,2019.38
2019-04-04T07:30:28.535Z,1980.00
2019-04-04T07:31:26.172Z,1974.38
2019-04-04T07:32:26.152Z,2036.25
2019-04-04T07:33:26.259Z,2053.12
2019-04-04T07:34:26.156Z,2115.00
2019-04-04T07:35:26.138Z,2137.50
2019-04-04T07:36:26.135Z,2092.50
2019-04-04T07:37:26.107Z,2086.88
2019-04-04T07:38:26.629Z,2047.50
2019-04-04T07:39:26.187Z,2098.12
2019-04-04T07:40:26.074Z,2160.00
2019-04-04T07:41:26.172Z,2115.00
2019-04-04T07:42:26.051Z,2081.25
2019-04-04T07:43:26.039Z,1878.75
2019-04-04T07:44:26.027Z,2070.00
2019-04-04T07:45:26.933Z,2092.50
2019-04-04T07:46:26.000Z,2064.38
2019-04-04T07:47:26.000Z,2086.88
2019-04-04T07:48:28.360Z,2300.62
2019-04-04T07:49:26.232Z,2334.38
2019-04-04T07:50:26.415Z,2328.75
2019-04-04T07:51:26.042Z,2373.75
2019-04-04T07:52:26.023Z,2311.88
2019-04-04T07:53:28.161Z,2120.62
2019-04-04T07:54:25.913Z,2109.38
2019-04-04T07:55:25.934Z,2086.88
2019-04-04T07:56:25.888Z,2148.75
2019-04-04T07:57:26.066Z,2210.62
2019-04-04T07:58:25.901Z,2070.00
2019-04-04T07:59:25.866Z,1845.00
2019-04-04T08:00:25.861Z,1771.88
2019-04-04T08:01:26.004Z,1530.00
2019-04-04T08:02:25.820Z,2205.00
2019-04-04T08:03:26.873Z,2480.62
2019-04-04T08:04:25.815Z,2536.88
2019-04-04T08:05:25.810Z,2615.62
2019-04-04T08:06:25.813Z,2446.88
2019-04-04T08:07:25.776Z,2407.50
2019-04-04T08:08:25.756Z,2452.50
2019-04-04T08:09:26.292Z,2514.38
2019-04-04T08:10:25.749Z,2508.75
2019-04-04T08:11:25.749Z,2356.88
2019-04-04T08:12:25.839Z,2356.88
2019-04-04T08:13:25.701Z,2396.25
2019-04-04T08:14:25.689Z,2441.25
2019-04-04T08:15:25.683Z,2351.25
2019-04-04T08:16:25.691Z,2497.50
2019-04-04T08:17:25.673Z,2216.25
2019-04-04T08:18:25.770Z,2598.75
2019-04-04T08:19:25.826Z,2604.38
2019-04-04T08:20:25.630Z,2565.00
2019-04-04T08:21:25.643Z,2340.00
2019-04-04T08:22:25.618Z,2047.50
2019-04-04T08:23:25.750Z,2351.25
2019-04-04T08:24:25.722Z,1822.50
2019-04-04T08:25:25.747Z,1501.88
2019-04-04T08:26:25.739Z,2030.62
2019-04-04T08:27:25.573Z,2615.62
2019-04-04T08:28:25.540Z,2688.75
2019-04-04T08:29:25.547Z,2570.62
2019-04-04T08:30:25.549Z,2261.25
2019-04-04T08:31:25.519Z,2081.25
2019-04-04T08:32:25.606Z,2632.50
2019-04-04T08:33:25.503Z,2086.88
2019-04-04T08:34:25.495Z,1575.00
2019-04-04T08:35:25.485Z,1569.38
2019-04-04T08:36:25.458Z,1895.62
2019-04-04T08:37:25.560Z,2272.50
2019-04-04T08:38:25.438Z,1805.62
2019-04-04T08:39:25.433Z,1541.25
2019-04-04T08:40:25.467Z,1704.38
2019-04-04T08:41:25.422Z,1591.88
2019-04-04T08:42:25.392Z,2092.50
2019-04-04T08:43:25.506Z,2638.12
2019-04-04T08:44:25.411Z,2767.50
2019-04-04T08:45:25.385Z,2812.50
2019-04-04T08:46:25.354Z,2790.00
2019-04-04T08:47:25.385Z,2188.12
2019-04-04T08:48:25.329Z,2553.75
2019-04-04T08:49:25.437Z,2604.38
2019-04-04T08:50:25.314Z,2610.00
2019-04-04T08:51:25.298Z,2705.62
2019-04-04T08:52:25.304Z,2660.62
2019-04-04T08:53:25.276Z,2683.12
2019-04-04T08:54:25.381Z,2851.88
2019-04-04T08:55:25.358Z,2919.38
2019-04-04T08:56:25.255Z,3009.38
2019-04-04T08:57:25.332Z,2992.50
2019-04-04T08:58:25.241Z,2745.00
2019-04-04T08:59:25.288Z,2660.62
2019-04-04T09:00:25.198Z,2671.88
2019-04-04T09:01:25.293Z,2790.00
2019-04-04T09:02:25.182Z,2835.00
2019-04-04T09:03:25.180Z,2818.12
2019-04-04T09:04:25.190Z,2773.12
2019-04-04T09:05:25.148Z,2688.75
2019-04-04T09:06:25.252Z,2846.25
2019-04-04T09:07:25.233Z,2818.12
2019-04-04T09:08:25.125Z,2778.75
2019-04-04T09:09:25.173Z,2947.50
2019-04-04T09:10:25.120Z,3026.25
2019-04-04T09:11:25.083Z,3048.75
2019-04-04T09:12:25.229Z,3015.00
2019-04-04T09:13:25.080Z,2964.38
2019-04-04T09:14:25.255Z,2863.12
2019-04-04T09:15:25.084Z,2739.38
2019-04-04T09:16:25.057Z,2857.50
2019-04-04T09:17:25.018Z,2857.50
2019-04-04T09:18:25.042Z,2936.25
2019-04-04T09:19:25.012Z,3223.12
2019-04-04T09:20:25.104Z,3161.25
2019-04-04T09:21:25.011Z,3144.38
2019-04-04T09:22:24.982Z,3211.88
2019-04-04T09:23:24.985Z,3217.50
2019-04-04T09:24:24.985Z,3178.12
2019-04-04T09:25:25.237Z,3150.00
2019-04-04T09:26:24.980Z,3206.25
2019-04-04T09:27:24.959Z,3161.25
2019-04-04T09:28:24.946Z,3065.62
2019-04-04T09:29:24.971Z,3060.00
2019-04-04T09:30:24.907Z,3144.38
2019-04-04T09:31:25.262Z,3279.38
2019-04-04T09:32:24.893Z,3279.38
2019-04-04T09:33:24.923Z,3178.12
2019-04-04T09:34:24.850Z,3037.50
2019-04-04T09:35:24.831Z,3082.50
2019-04-04T09:36:24.829Z,3189.38
2019-04-04T09:37:25.246Z,3251.25
2019-04-04T09:38:24.810Z,3330.00
2019-04-04T09:39:24.812Z,3363.75
2019-04-04T09:40:24.788Z,3369.38
2019-04-04T09:41:24.773Z,3318.75
2019-04-04T09:42:24.773Z,3301.88
2019-04-04T09:43:24.861Z,3285.00
2019-04-04T09:44:24.769Z,3251.25
2019-04-04T09:45:24.742Z,2986.88
2019-04-04T09:46:24.739Z,2891.25
2019-04-04T09:47:25.428Z,3015.00
2019-04-04T09:48:24.713Z,3217.50
2019-04-04T09:49:24.821Z,3318.75
2019-04-04T09:50:24.683Z,3273.75
2019-04-04T09:51:24.685Z,3420.00
2019-04-04T09:52:24.686Z,3189.38
2019-04-04T09:53:24.686Z,2986.88
2019-04-04T09:54:31.565Z,3465.00
2019-04-04T09:55:25.631Z,3285.00
2019-04-04T09:56:24.847Z,2998.12
2019-04-04T09:57:24.618Z,3195.00
2019-04-04T09:58:24.610Z,3240.00
2019-04-04T09:59:24.606Z,3352.50
2019-04-04T10:00:24.724Z,3245.62
2019-04-04T10:01:24.575Z,3200.62
2019-04-04T10:02:24.647Z,3043.12
2019-04-04T10:03:25.534Z,3037.50
2019-04-04T10:04:24.554Z,3071.25
2019-04-04T10:05:24.529Z,2761.88
2019-04-04T10:06:24.535Z,2520.00
2019-04-04T10:07:25.268Z,2666.25
2019-04-04T10:08:24.510Z,2745.00
2019-04-04T10:09:24.494Z,2919.38
2019-04-04T10:10:24.485Z,3273.75
2019-04-04T10:11:24.470Z,2986.88
2019-04-04T10:12:24.647Z,2790.00
2019-04-04T10:13:24.450Z,2632.50
2019-04-04T10:14:24.619Z,2716.88
2019-04-04T10:15:24.436Z,3099.38
2019-04-04T10:16:24.444Z,3656.25
2019-04-04T10:17:24.405Z,3515.62
2019-04-04T10:18:24.410Z,3251.25
2019-04-04T10:19:24.397Z,3543.75
2019-04-04T10:20:24.591Z,3526.88
2019-04-04T10:21:24.376Z,3588.75
2019-04-04T10:22:24.371Z,3397.50
2019-04-04T10:23:24.355Z,3425.62
2019-04-04T10:24:24.893Z,2998.12
2019-04-04T10:25:24.491Z,3060.00
2019-04-04T10:26:24.342Z,2863.12
2019-04-04T10:27:24.317Z,3093.75
2019-04-04T10:28:24.324Z,3588.75
2019-04-04T10:29:24.297Z,3234.38
2019-04-04T10:30:24.285Z,3526.88
2019-04-04T10:31:24.404Z,3155.62
2019-04-04T10:32:24.257Z,2610.00
2019-04-04T10:33:24.258Z,3003.75
2019-04-04T10:34:24.233Z,2919.38
2019-04-04T10:35:24.226Z,2936.25
2019-04-04T10:36:24.223Z,3138.75
2019-04-04T10:37:24.396Z,3380.62
2019-04-04T10:38:24.874Z,3543.75
2019-04-04T10:39:28.961Z,3588.75
2019-04-04T10:40:25.204Z,3093.75
2019-04-04T10:41:24.167Z,3178.12
2019-04-04T10:42:24.266Z,3549.38
2019-04-04T10:43:24.252Z,3656.25
2019-04-04T10:44:24.242Z,3628.12
2019-04-04T10:45:24.596Z,3796.88
2019-04-04T10:46:24.183Z,3819.38
2019-04-04T10:47:24.106Z,3813.75
2019-04-04T10:48:24.102Z,3751.88
2019-04-04T10:49:24.210Z,3656.25
2019-04-04T10:50:24.076Z,3510.00
2019-04-04T10:51:24.083Z,3459.38
2019-04-04T10:52:24.052Z,3335.62
2019-04-04T10:53:24.056Z,3436.88
2019-04-04T10:54:24.179Z,3532.50
2019-04-04T10:55:24.029Z,3723.75
2019-04-04T10:56:24.023Z,3791.25
2019-04-04T10:57:24.117Z,3521.25
2019-04-04T10:58:24.111Z,3510.00
2019-04-04T10:59:23.991Z,3796.88
2019-04-04T11:00:23.983Z,3628.12
2019-04-04T11:01:23.996Z,3583.12
2019-04-04T11:02:23.962Z,3622.50
2019-04-04T11:03:24.148Z,3538.12
2019-04-04T11:04:23.942Z,3588.75
2019-04-04T11:05:23.928Z,3403.12
2019-04-04T11:06:23.923Z,3605.62
2019-04-04T11:07:23.903Z,3628.12
2019-04-04T11:08:23.901Z,3566.25
2019-04-04T11:09:24.097Z,3476.25
2019-04-04T11:10:23.882Z,3611.25
2019-04-04T11:11:23.915Z,3341.25
2019-04-04T11:12:23.884Z,3240.00
2019-04-04T11:13:33.393Z,3200.62
2019-04-04T11:14:25.419Z,2964.38
2019-04-04T11:15:23.832Z,3155.62
2019-04-04T11:16:30.008Z,3453.75
2019-04-04T11:17:24.837Z,3223.12
2019-04-04T11:18:23.813Z,2778.75
2019-04-04T11:19:30.955Z,2435.62
2019-04-04T11:20:25.012Z,2728.12
2019-04-04T11:21:23.771Z,2840.62
2019-04-04T11:22:23.783Z,2896.88
2019-04-04T11:23:23.748Z,2936.25
2019-04-04T11:24:23.739Z,3003.75
2019-04-04T11:25:29.337Z,3223.12
2019-04-04T11:26:23.746Z,2812.50
2019-04-04T11:27:23.816Z,2925.00
2019-04-04T11:28:23.742Z,3628.12
2019-04-04T11:29:23.699Z,3656.25
2019-04-04T11:30:23.697Z,3571.88
2019-04-04T11:31:23.661Z,3622.50
2019-04-04T11:32:23.659Z,3577.50
2019-04-04T11:33:23.788Z,3330.00
2019-04-04T11:34:23.641Z,3442.50
2019-04-04T11:35:23.647Z,3448.12
2019-04-04T11:36:23.629Z,2970.00
2019-04-04T11:37:23.604Z,3425.62
2019-04-04T11:38:23.607Z,3285.00
2019-04-04T11:39:23.670Z,3594.38
2019-04-04T11:40:23.583Z,3150.00
2019-04-04T11:41:23.575Z,2705.62
2019-04-04T11:42:23.577Z,2407.50
2019-04-04T11:43:23.547Z,3206.25
2019-04-04T11:44:23.537Z,3611.25
2019-04-04T11:45:24.333Z,3594.38
2019-04-04T11:46:23.521Z,3403.12
2019-04-04T11:47:23.535Z,3504.38
2019-04-04T11:48:23.517Z,3645.00
2019-04-04T11:49:23.513Z,3555.00
2019-04-04T11:50:23.476Z,3555.00
2019-04-04T11:51:23.623Z,3543.75
2019-04-04T11:52:23.460Z,3425.62
2019-04-04T11:53:24.010Z,3453.75
2019-04-04T11:54:23.464Z,3487.50
2019-04-04T11:55:23.429Z,3391.88
2019-04-04T11:56:23.496Z,3425.62
2019-04-04T11:57:24.011Z,3622.50
2019-04-04T11:58:23.434Z,3633.75
2019-04-04T11:59:23.411Z,3588.75
2019-04-04T12:00:23.399Z,3476.25
2019-04-04T12:01:23.372Z,3380.62
2019-04-04T12:02:23.545Z,3166.88
2019-04-04T12:03:23.358Z,3211.88
2019-04-04T12:04:23.358Z,3301.88
2019-04-04T12:05:23.340Z,2998.12
2019-04-04T12:06:23.368Z,2643.75
2019-04-04T12:07:23.435Z,3161.25
2019-04-04T12:08:23.334Z,3481.88
2019-04-04T12:09:23.297Z,3228.75
2019-04-04T12:10:23.295Z,3245.62
2019-04-04T12:11:23.288Z,3105.00
2019-04-04T12:12:23.371Z,3178.12
2019-04-04T12:13:23.262Z,3088.12
2019-04-04T12:14:23.258Z,2750.62
2019-04-04T12:15:23.248Z,2272.50
2019-04-04T12:16:23.227Z,2385.00
2019-04-04T12:17:23.238Z,3020.62
2019-04-04T12:18:23.321Z,2761.88
2019-04-04T12:19:23.257Z,1552.50
2019-04-04T12:20:23.196Z,1046.25
2019-04-04T12:21:23.207Z,871.88
2019-04-04T12:22:23.177Z,984.38
2019-04-04T12:23:23.163Z,1282.50
2019-04-04T12:24:23.268Z,1485.00
2019-04-04T12:25:23.148Z,1569.38
2019-04-04T12:26:23.150Z,1608.75
2019-04-04T12:27:23.124Z,1833.75
2019-04-04T12:28:23.130Z,2356.88
2019-04-04T12:29:23.096Z,2750.62
2019-04-04T12:30:23.218Z,2413.12
2019-04-04T12:31:23.094Z,3228.75
2019-04-04T12:32:23.239Z,3043.12
2019-04-04T12:33:23.055Z,2300.62
2019-04-04T12:34:23.138Z,2306.25
2019-04-04T12:35:23.038Z,2761.88